sensor_id;sensor_type;location;lat;lon;timestamp;P1;P2;P0
45312;PMS7003;31050;51.540;5.852;2022-12-05T00:06:59;28.09;28.79;24.53
45312;PMS7003;31050;51.540;5.852;2022-12-05T00:20:19;28.69;29.33;24.43
45312;PMS7003;31050;51.540;5.852;2022-12-05T00:33:39;29.41;29.98;25.73
45312;PMS7003;31050;51.540;5.852;2022-12-05T00:46:59;28.93;29.55;24.43
45312;PMS7003;31050;51.540;5.852;2022-12-05T01:00:19;29.29;29.88;24.97
45312;PMS7003;31050;51.540;5.852;2022-12-05T01:13:39;30.85;31.29;26.82
45312;PMS7003;31050;51.540;5.852;2022-12-05T01:26:59;29.65;30.2;25.19
45312;PMS7003;31050;51.540;5.852;2022-12-05T01:40:19;29.17;29.77;25.52
45312;PMS7003;31050;51.540;5.852;2022-12-05T01:53:39;28.93;29.55;26.39
45312;PMS7003;31050;51.540;5.852;2022-12-05T02:06:59;29.29;29.44;26.06
45312;PMS7003;31050;51.540;5.852;2022-12-05T02:20:19;29.17;29.77;26.39
45312;PMS7003;31050;51.540;5.852;2022-12-05T02:33:39;30.49;30.96;25.84
45312;PMS7003;31050;51.540;5.852;2022-12-05T02:46:59;29.77;30.09;25.62
45312;PMS7003;31050;51.540;5.852;2022-12-05T03:00:19;30.13;30.64;25.41
45312;PMS7003;31050;51.540;5.852;2022-12-05T03:13:39;31.81;32.16;26.82
45312;PMS7003;31050;51.540;5.852;2022-12-05T03:26:58;30.25;30.42;26.5
45312;PMS7003;31050;51.540;5.852;2022-12-05T03:40:18;30.97;31.07;26.39
45312;PMS7003;31050;51.540;5.852;2022-12-05T03:53:38;33.25;33.04;27.91
45312;PMS7003;31050;51.540;5.852;2022-12-05T04:06:58;33.62;33.8;28.13
45312;PMS7003;31050;51.540;5.852;2022-12-05T04:20:18;32.65;32.93;27.37
45312;PMS7003;31050;51.540;5.852;2022-12-05T04:33:37;30.37;30.86;26.82
45312;PMS7003;31050;51.540;5.852;2022-12-05T04:46:57;32.29;32.6;27.37
45312;PMS7003;31050;51.540;5.852;2022-12-05T05:00:17;31.21;31.4;26.71
45312;PMS7003;31050;51.540;5.852;2022-12-05T05:13:36;33.37;32.38;27.91
45312;PMS7003;31050;51.540;5.852;2022-12-05T05:26:56;28.81;29.44;25.41
45312;PMS7003;31050;51.540;5.852;2022-12-05T05:40:16;30.61;31.07;26.39
45312;PMS7003;31050;51.540;5.852;2022-12-05T05:53:36;30.13;29.77;24.75
45312;PMS7003;31050;51.540;5.852;2022-12-05T06:06:55;29.17;29.44;24.86
45312;PMS7003;31050;51.540;5.852;2022-12-05T06:20:15;27.73;28.46;23.66
45312;PMS7003;31050;51.540;5.852;2022-12-05T06:33:35;26.89;27.7;24.1
45312;PMS7003;31050;51.540;5.852;2022-12-05T06:46:54;24.37;25.41;22.68
45312;PMS7003;31050;51.540;5.852;2022-12-05T07:00:14;24.13;25.19;22.46
45312;PMS7003;31050;51.540;5.852;2022-12-05T07:13:34;23.53;24.64;22.14
45312;PMS7003;31050;51.540;5.852;2022-12-05T07:26:53;22.81;23.99;21.48
45312;PMS7003;31050;51.540;5.852;2022-12-05T07:40:13;21.13;22.46;20.83
45312;PMS7003;31050;51.540;5.852;2022-12-05T07:53:33;23.29;24.43;21.37
45312;PMS7003;31050;51.540;5.852;2022-12-05T08:06:53;23.53;23.77;20.72
45312;PMS7003;31050;51.540;5.852;2022-12-05T08:20:12;20.53;21.92;20.17
45312;PMS7003;31050;51.540;5.852;2022-12-05T08:33:32;21.85;22.35;19.74
45312;PMS7003;31050;51.540;5.852;2022-12-05T08:46:52;20.17;21.59;19.19
45312;PMS7003;31050;51.540;5.852;2022-12-05T09:00:12;17.29;18.98;17.56
45312;PMS7003;31050;51.540;5.852;2022-12-05T09:13:32;17.53;19.19;17.23
45312;PMS7003;31050;51.540;5.852;2022-12-05T09:26:51;18.25;19.41;17.23
45312;PMS7003;31050;51.540;5.852;2022-12-05T09:40:11;16.33;18.1;16.58
45312;PMS7003;31050;51.540;5.852;2022-12-05T09:53:31;15.25;16.14;14.83
45312;PMS7003;31050;51.540;5.852;2022-12-05T10:06:50;11.89;12.87;12.44
45312;PMS7003;31050;51.540;5.852;2022-12-05T10:20:10;9.25;11.67;10.8
45312;PMS7003;31050;51.540;5.852;2022-12-05T10:33:30;12.61;14.72;13.42
45312;PMS7003;31050;51.540;5.852;2022-12-05T10:46:50;11.41;13.63;12.44
45312;PMS7003;31050;51.540;5.852;2022-12-05T11:00:09;9.73;12.11;11.35
45312;PMS7003;31050;51.540;5.852;2022-12-05T11:13:29;12.61;13.09;12.0
45312;PMS7003;31050;51.540;5.852;2022-12-05T11:26:49;9.49;11.89;11.02
45312;PMS7003;31050;51.540;5.852;2022-12-05T11:40:09;8.53;11.02;10.04
45312;PMS7003;31050;51.540;5.852;2022-12-05T11:53:28;7.21;9.82;9.38
45312;PMS7003;31050;51.540;5.852;2022-12-05T12:06:48;6.73;9.38;8.73
45312;PMS7003;31050;51.540;5.852;2022-12-05T12:20:08;6.37;9.06;8.73
45312;PMS7003;31050;51.540;5.852;2022-12-05T12:33:28;7.09;9.71;9.06
45312;PMS7003;31050;51.540;5.852;2022-12-05T12:46:48;6.49;9.17;8.84
45312;PMS7003;31050;51.540;5.852;2022-12-05T13:00:07;6.01;8.73;8.29
45312;PMS7003;31050;51.540;5.852;2022-12-05T13:00:07;6.01;8.73;8.29
45312;PMS7003;31050;51.540;5.852;2022-12-05T13:13:27;6.73;9.38;8.62
45312;PMS7003;31050;51.540;5.852;2022-12-05T13:26:47;5.89;8.62;8.29
45312;PMS7003;31050;51.540;5.852;2022-12-05T13:40:07;4.57;7.42;7.2
45312;PMS7003;31050;51.540;5.852;2022-12-05T13:53:26;5.53;8.29;8.08
45312;PMS7003;31050;51.540;5.852;2022-12-05T14:06:46;6.25;8.95;8.51
45312;PMS7003;31050;51.540;5.852;2022-12-05T14:20:06;7.81;10.36;9.6
45312;PMS7003;31050;51.540;5.852;2022-12-05T14:33:26;9.49;11.89;10.91
45312;PMS7003;31050;51.540;5.852;2022-12-05T14:46:46;10.21;12.54;11.89
45312;PMS7003;31050;51.540;5.852;2022-12-05T15:00:06;10.57;12.87;12.33
45312;PMS7003;31050;51.540;5.852;2022-12-05T15:13:26;12.85;13.74;13.42
45312;PMS7003;31050;51.540;5.852;2022-12-05T15:26:46;11.41;13.63;13.31
45312;PMS7003;31050;51.540;5.852;2022-12-05T15:40:06;11.17;13.42;12.98
45312;PMS7003;31050;51.540;5.852;2022-12-05T15:53:26;12.13;14.29;12.87
45312;PMS7003;31050;51.540;5.852;2022-12-05T16:06:46;12.49;14.62;13.96
45312;PMS7003;31050;51.540;5.852;2022-12-05T16:20:06;14.05;15.6;14.62
45312;PMS7003;31050;51.540;5.852;2022-12-05T16:33:26;13.93;15.92;14.51
45312;PMS7003;31050;51.540;5.852;2022-12-05T16:46:46;16.21;17.99;16.58
45312;PMS7003;31050;51.540;5.852;2022-12-05T17:00:06;14.65;16.58;15.6
45312;PMS7003;31050;51.540;5.852;2022-12-05T17:13:26;13.57;15.6;14.51
45312;PMS7003;31050;51.540;5.852;2022-12-05T17:26:46;15.01;15.81;14.83
45312;PMS7003;31050;51.540;5.852;2022-12-05T17:40:06;15.01;16.9;15.81
45312;PMS7003;31050;51.540;5.852;2022-12-05T17:53:26;15.97;17.78;16.03
45312;PMS7003;31050;51.540;5.852;2022-12-05T18:06:46;15.49;17.34;15.92
45312;PMS7003;31050;51.540;5.852;2022-12-05T18:20:05;14.41;16.36;15.49
45312;PMS7003;31050;51.540;5.852;2022-12-05T18:33:25;16.33;18.1;16.58
45312;PMS7003;31050;51.540;5.852;2022-12-05T18:46:45;15.85;17.67;16.58
45312;PMS7003;31050;51.540;5.852;2022-12-05T19:00:05;15.97;17.78;16.14
45312;PMS7003;31050;51.540;5.852;2022-12-05T19:13:24;16.45;18.21;16.8
45312;PMS7003;31050;51.540;5.852;2022-12-05T19:26:44;17.41;19.08;16.8
45312;PMS7003;31050;51.540;5.852;2022-12-05T19:40:04;15.85;17.67;16.47
45312;PMS7003;31050;51.540;5.852;2022-12-05T19:53:23;14.41;16.36;14.94
45312;PMS7003;31050;51.540;5.852;2022-12-05T20:06:43;13.93;15.92;14.4
45312;PMS7003;31050;51.540;5.852;2022-12-05T20:20:03;13.69;15.71;14.29
45312;PMS7003;31050;51.540;5.852;2022-12-05T20:33:22;14.77;16.69;14.94
45312;PMS7003;31050;51.540;5.852;2022-12-05T20:46:42;14.29;16.25;15.16
45312;PMS7003;31050;51.540;5.852;2022-12-05T21:00:02;11.77;13.96;13.09
45312;PMS7003;31050;51.540;5.852;2022-12-05T21:13:21;8.65;11.13;10.26
45312;PMS7003;31050;51.540;5.852;2022-12-05T21:26:41;4.81;7.64;7.42
45312;PMS7003;31050;51.540;5.852;2022-12-05T21:40:01;3.12;6.11;5.68
45312;PMS7003;31050;51.540;5.852;2022-12-05T21:53:20;3.0;6.0;5.57
45312;PMS7003;31050;51.540;5.852;2022-12-05T22:06:40;3.48;6.44;5.57
45312;PMS7003;31050;51.540;5.852;2022-12-05T22:20:00;3.73;6.66;6.33
45312;PMS7003;31050;51.540;5.852;2022-12-05T22:33:20;4.21;7.09;6.33
45312;PMS7003;31050;51.540;5.852;2022-12-05T22:46:40;4.93;6.88;6.77
45312;PMS7003;31050;51.540;5.852;2022-12-05T22:59:59;4.69;7.53;6.55
45312;PMS7003;31050;51.540;5.852;2022-12-05T23:13:19;4.09;6.99;6.66
45312;PMS7003;31050;51.540;5.852;2022-12-05T23:26:39;3.97;6.88;6.33
45312;PMS7003;31050;51.540;5.852;2022-12-05T23:39:59;7.21;7.53;6.77
45312;PMS7003;31050;51.540;5.852;2022-12-05T23:53:19;4.21;7.09;6.99
